Time;durP1;ratioP1;P1;durP2;ratioP2;P2;SDS_P1;SDS_P2;PMS_P1;PMS_P2;Temp;Humidity;BMP_temperature;BMP_pressure;BME280_temperature;BME280_humidity;BME280_pressure;Samples;Min_cycle;Max_cycle;Signal;HPM_P1;HPM_P2
2023/04/12 00:01:48;;;;;;;3.80;2.20;;;;;;;9.58;79.45;92006.31;5090612;27;20032;-77
2023/04/12 00:04:14;;;;;;;4.10;1.90;;;;;;;9.51;77.96;91988.41;5128008;27;20039;-77
2023/04/12 00:06:41;;;;;;;5.00;2.10;;;;;;;9.54;76.06;91982.59;5126761;27;20074;-78
2023/04/12 00:09:07;;;;;;;4.95;2.25;;;;;;;9.52;75.44;91976.13;5110193;27;20608;-77
2023/04/12 00:11:34;;;;;;;6.72;2.40;;;;;;;9.55;74.39;91981.53;5108481;27;20039;-77
2023/04/12 00:13:59;;;;;;;4.15;2.45;;;;;;;9.54;74.43;91976.59;5126836;27;20156;-77
2023/04/12 00:16:25;;;;;;;5.88;3.15;;;;;;;9.58;79.06;91964.50;5127229;27;20049;-77
2023/04/12 00:18:51;;;;;;;10.32;3.60;;;;;;;9.58;80.76;91970.50;5108711;27;20569;-77
2023/04/12 00:21:18;;;;;;;6.05;3.40;;;;;;;9.55;82.12;91968.47;5109074;27;20031;-77
2023/04/12 00:23:48;;;;;;;5.30;2.85;;;;;;;9.47;81.32;91957.94;5125535;27;20039;-77
2023/04/12 00:26:14;;;;;;;6.65;2.40;;;;;;;9.42;80.12;91968.50;5110399;27;20049;-77
2023/04/12 00:28:41;;;;;;;8.20;2.58;;;;;;;9.36;78.96;91970.41;5111888;27;20031;-77
2023/04/12 00:31:07;;;;;;;5.45;2.95;;;;;;;9.31;79.19;91962.69;5107357;27;20043;-77
2023/04/12 00:33:36;;;;;;;7.57;2.50;;;;;;;9.26;79.76;91960.94;5108041;27;20027;-77
2023/04/12 00:36:02;;;;;;;4.75;2.58;;;;;;;9.24;80.08;91963.06;5109226;27;20051;-77
2023/04/12 00:38:27;;;;;;;4.43;2.40;;;;;;;9.21;80.56;91961.03;5126740;27;20357;-77
2023/04/12 00:40:53;;;;;;;6.03;2.85;;;;;;;9.22;80.12;91961.81;5106958;27;20032;-77
2023/04/12 00:43:19;;;;;;;6.55;3.08;;;;;;;9.21;80.75;91952.41;5116097;27;20039;-77
2023/04/12 00:45:46;;;;;;;3.72;2.33;;;;;;;9.19;79.98;91955.34;5098451;28;20119;-78
2023/04/12 00:48:12;;;;;;;6.45;2.33;;;;;;;9.21;79.11;91952.41;5109205;28;20092;-77
2023/04/12 00:50:40;;;;;;;4.82;2.50;;;;;;;9.20;78.92;91954.25;5111752;27;20355;-77
2023/04/12 00:53:08;;;;;;;6.97;2.63;;;;;;;9.20;79.35;91951.66;5125271;27;20031;-77
2023/04/12 00:55:35;;;;;;;11.15;3.00;;;;;;;9.20;79.71;91962.09;5126947;27;20460;-77
2023/04/12 00:58:02;;;;;;;4.97;2.72;;;;;;;9.19;80.30;91960.56;5091436;27;20043;-77
2023/04/12 01:00:27;;;;;;;5.82;2.80;;;;;;;9.18;80.88;91948.53;5128258;27;20046;-77
2023/04/12 01:02:53;;;;;;;4.20;2.60;;;;;;;9.16;81.15;91950.66;5108647;27;20031;-77
2023/04/12 01:05:22;;;;;;;5.03;2.90;;;;;;;9.16;81.24;91954.06;5107045;27;20512;-77
2023/04/12 01:08:04;;;;;;;5.05;2.60;;;;;;;9.14;81.32;91947.56;5105745;28;20519;-77
2023/04/12 01:10:48;;;;;;;3.95;2.70;;;;;;;9.15;80.91;91954.34;5107015;27;20084;-78
2023/04/12 01:13:16;;;;;;;4.00;2.50;;;;;;;9.15;82.09;91956.97;5126018;27;20520;-77
2023/04/12 01:16:07;;;;;;;6.03;3.33;;;;;;;9.15;81.96;91957.75;5108232;27;20038;-77
2023/04/12 01:18:39;;;;;;;4.75;3.00;;;;;;;9.16;83.06;91958.50;5110934;27;20043;-78
2023/04/12 01:21:15;;;;;;;6.00;2.97;;;;;;;9.18;84.88;91959.00;5107646;27;20055;-77
2023/04/12 01:24:22;;;;;;;5.25;3.58;;;;;;;9.25;87.04;91967.22;5109610;27;20037;-77
2023/04/12 01:26:48;;;;;;;6.10;3.80;;;;;;;9.26;88.03;91960.94;5127015;27;20511;-77
2023/04/12 01:29:16;;;;;;;6.47;3.40;;;;;;;9.21;87.97;91961.03;5124616;27;20035;-77
2023/04/12 01:32:02;;;;;;;6.70;2.95;;;;;;;9.09;87.36;91951.06;5108737;27;20036;-77
2023/04/12 01:34:30;;;;;;;9.20;2.90;;;;;;;9.10;87.34;91968.28;5109372;27;20438;-77
2023/04/12 01:37:00;;;;;;;8.55;3.08;;;;;;;9.08;87.00;91961.81;5108099;27;20034;-77
2023/04/12 01:39:26;;;;;;;10.00;4.25;;;;;;;9.08;88.15;91961.81;5106229;27;20035;-77
2023/04/12 01:41:51;;;;;;;4.95;3.30;;;;;;;9.05;87.64;91954.53;5128011;27;20027;-77
2023/04/12 01:44:18;;;;;;;4.85;3.28;;;;;;;9.02;87.84;91944.69;5107269;27;20067;-77
2023/04/12 01:46:46;;;;;;;5.57;3.47;;;;;;;9.04;89.05;91950.38;5102944;27;20109;-77
2023/04/12 01:49:12;;;;;;;12.48;4.72;;;;;;;9.05;91.11;91955.31;5107724;27;20074;-77
2023/04/12 01:51:49;;;;;;;7.90;5.15;;;;;;;9.13;97.83;91948.66;5110133;27;20031;-77
2023/04/12 01:54:24;;;;;;;9.75;5.63;;;;;;;9.10;100.00;91936.94;5106830;27;20119;-77
2023/04/12 01:56:56;;;;;;;9.20;6.03;;;;;;;9.08;100.00;91939.06;5094696;27;20059;-77
2023/04/12 01:59:27;;;;;;;10.27;6.28;;;;;;;9.07;100.00;91941.97;5105794;27;20032;-76
2023/04/12 02:01:53;;;;;;;8.13;5.63;;;;;;;9.07;100.00;91937.50;5121952;27;20106;-77
2023/04/12 02:04:19;;;;;;;10.98;6.40;;;;;;;9.04;100.00;91940.72;5123911;27;20465;-77
2023/04/12 02:06:46;;;;;;;8.95;5.60;;;;;;;9.05;100.00;91938.88;5105117;27;20039;-77
2023/04/12 02:09:12;;;;;;;9.45;5.40;;;;;;;9.05;100.00;91928.41;5110160;27;20043;-76
2023/04/12 02:11:37;;;;;;;9.15;5.78;;;;;;;8.95;100.00;91930.16;5104520;27;20076;-77
2023/04/12 02:14:03;;;;;;;7.70;5.63;;;;;;;8.91;100.00;91934.41;5105851;27;20039;-76
2023/04/12 02:16:31;;;;;;;9.77;5.65;;;;;;;8.90;100.00;91927.66;5121745;27;20569;-76
2023/04/12 02:18:57;;;;;;;10.95;6.03;;;;;;;8.85;100.00;91930.38;5088508;27;20037;-77
2023/04/12 02:21:23;;;;;;;8.10;5.82;;;;;;;8.74;100.00;91921.94;5107513;27;20069;-77
2023/04/12 02:23:49;;;;;;;10.40;5.97;;;;;;;8.73;100.00;91930.81;5130827;27;20487;-77
2023/04/12 02:26:15;;;;;;;10.38;5.97;;;;;;;8.72;100.00;91925.91;5122698;27;20044;-77
2023/04/12 02:28:44;;;;;;;12.15;6.40;;;;;;;8.73;100.00;91922.22;5105392;27;20032;-77
2023/04/12 02:31:14;;;;;;;10.77;6.80;;;;;;;8.72;100.00;91925.91;5105361;27;20089;-77
2023/04/12 02:33:41;;;;;;;13.38;7.20;;;;;;;8.69;100.00;91932.47;5089837;27;20043;-77
2023/04/12 02:36:10;;;;;;;12.60;6.70;;;;;;;8.65;100.00;91917.66;5103449;27;20088;-76
2023/04/12 02:38:35;;;;;;;9.20;6.88;;;;;;;8.64;100.00;91926.53;5123740;27;20047;-76
2023/04/12 02:41:03;;;;;;;14.05;6.50;;;;;;;8.56;100.00;91917.56;5108349;28;20032;-76
2023/04/12 02:43:32;;;;;;;10.90;6.32;;;;;;;8.53;100.00;91913.69;5103895;27;20043;-76
2023/04/12 02:46:00;;;;;;;11.73;6.72;;;;;;;8.48;100.00;91916.34;5102192;27;20478;-76
2023/04/12 02:48:26;;;;;;;9.40;6.90;;;;;;;8.45;100.00;91916.19;5123140;27;20057;-76
2023/04/12 02:50:52;;;;;;;10.13;7.25;;;;;;;8.44;100.00;91923.22;5103916;27;20035;-76
2023/04/12 02:53:21;;;;;;;10.15;7.07;;;;;;;8.44;100.00;91925.03;5101593;27;20064;-78
2023/04/12 02:56:00;;;;;;;12.77;7.30;;;;;;;8.41;100.00;91929.00;5103871;27;20040;-76
2023/04/12 02:58:26;;;;;;;9.02;6.88;;;;;;;8.38;100.00;91926.94;5083207;27;20409;-76
2023/04/12 03:00:52;;;;;;;10.60;6.78;;;;;;;8.35;100.00;91924.88;5108252;27;20028;-76
2023/04/12 03:03:24;;;;;;;11.77;7.28;;;;;;;8.33;100.00;91929.63;5086823;27;20078;-76
2023/04/12 03:05:54;;;;;;;11.05;6.72;;;;;;;8.30;100.00;91930.97;5122197;27;20039;-76
2023/04/12 03:08:20;;;;;;;18.10;7.22;;;;;;;8.28;100.00;91927.88;5093171;28;20035;-76
2023/04/12 03:10:51;;;;;;;11.17;6.67;;;;;;;8.28;100.00;91932.31;5102697;27;20401;-76
2023/04/12 03:13:17;;;;;;;14.52;7.28;;;;;;;8.28;100.00;91922.66;5093134;27;20284;-76
2023/04/12 03:15:51;;;;;;;11.35;6.97;;;;;;;8.29;100.00;91920.84;5104546;27;20412;-76
2023/04/12 03:18:22;;;;;;;11.98;6.75;;;;;;;8.31;100.00;91922.09;5099453;28;20071;-76
2023/04/12 03:20:51;;;;;;;8.60;6.63;;;;;;;8.32;100.00;91915.03;5103291;27;20279;-76
2023/04/12 03:23:17;;;;;;;11.75;6.30;;;;;;;8.42;100.00;91914.91;5102182;27;20057;-77
2023/04/12 03:25:48;;;;;;;10.05;6.32;;;;;;;8.43;100.00;91921.66;5107247;27;20120;-77
2023/04/12 03:28:40;;;;;;;8.95;6.45;;;;;;;8.43;100.00;91915.69;5118252;27;20095;-77
2023/04/12 03:31:06;;;;;;;13.07;7.28;;;;;;;8.43;100.00;91911.25;5106208;27;20035;-76
2023/04/12 03:33:40;;;;;;;12.68;7.68;;;;;;;8.43;100.00;91911.25;5104158;28;20057;-77
2023/04/12 03:36:14;;;;;;;15.07;7.70;;;;;;;8.72;100.00;91918.06;5105858;28;20031;-77
2023/04/12 03:38:40;;;;;;;9.52;6.95;;;;;;;8.68;100.00;91909.25;5105803;27;20042;-77
2023/04/12 03:41:08;;;;;;;12.77;7.57;;;;;;;8.66;100.00;91914.00;5103334;28;20035;-77
2023/04/12 03:43:36;;;;;;;14.48;7.68;;;;;;;8.48;100.00;91918.19;5086187;28;20048;-77
2023/04/12 03:46:06;;;;;;;11.95;7.72;;;;;;;8.49;100.00;91911.94;5105174;28;20062;-77
2023/04/12 03:48:32;;;;;;;14.15;8.60;;;;;;;8.31;100.00;91913.50;5103545;28;20038;-77
2023/04/12 03:51:07;;;;;;;11.60;8.68;;;;;;;8.24;100.00;91906.06;5122806;28;21085;-77
2023/04/12 03:53:35;;;;;;;16.95;9.05;;;;;;;8.08;100.00;91913.34;5090077;28;20462;-76
2023/04/12 03:56:02;;;;;;;11.40;7.60;;;;;;;8.10;100.00;91916.41;5087453;28;20044;-76
2023/04/12 03:58:32;;;;;;;13.73;7.53;;;;;;;8.19;100.00;91923.59;5104142;28;20031;-76
2023/04/12 04:01:05;;;;;;;11.13;7.60;;;;;;;8.04;100.00;91914.97;5102273;28;20067;-76
2023/04/12 04:03:33;;;;;;;9.60;7.43;;;;;;;8.01;100.00;91920.72;5103580;28;20028;-78
2023/04/12 04:06:16;;;;;;;10.90;7.70;;;;;;;7.74;100.00;91929.19;5094873;28;20154;-75
2023/04/12 04:08:43;;;;;;;15.27;10.25;;;;;;;7.60;100.00;91929.09;5088465;28;20036;-76
2023/04/12 04:11:11;;;;;;;18.45;9.95;;;;;;;7.56;100.00;91920.31;5088306;28;20051;-77
2023/04/12 04:13:40;;;;;;;9.55;7.05;;;;;;;7.74;100.00;91923.97;5102354;28;20035;-76
2023/04/12 04:16:09;;;;;;;17.15;8.50;;;;;;;7.66;100.00;91917.56;5101895;28;20039;-76
2023/04/12 04:18:36;;;;;;;9.77;7.13;;;;;;;7.73;100.00;91927.66;5104677;28;20037;-76
2023/04/12 04:21:03;;;;;;;14.65;9.48;;;;;;;7.67;100.00;91929.53;5093638;28;20031;-76
2023/04/12 04:23:37;;;;;;;12.38;8.43;;;;;;;7.61;100.00;91920.25;5076076;28;20043;-76
2023/04/12 04:26:10;;;;;;;10.73;5.95;;;;;;;7.65;100.00;91936.06;5088164;28;20339;-77
2023/04/12 04:28:44;;;;;;;11.38;6.60;;;;;;;7.57;100.00;91929.69;5102928;28;20406;-76
2023/04/12 04:31:15;;;;;;;14.57;8.82;;;;;;;7.66;100.00;91941.03;5100628;28;20494;-76
2023/04/12 04:33:41;;;;;;;14.07;8.82;;;;;;;7.48;100.00;91939.94;5101100;28;20040;-75
2023/04/12 04:36:08;;;;;;;16.38;10.38;;;;;;;7.44;100.00;91941.56;5102188;28;20046;-78
2023/04/12 04:38:35;;;;;;;15.23;10.15;;;;;;;7.55;100.00;91950.03;5092010;28;20032;-77
2023/04/12 04:41:16;;;;;;;15.10;10.05;;;;;;;7.55;100.00;91947.41;5088186;28;20416;-76
2023/04/12 04:44:12;;;;;;;16.17;11.03;;;;;;;7.46;100.00;91942.06;5115672;28;20177;-77
2023/04/12 04:46:47;;;;;;;14.27;10.32;;;;;;;7.39;100.00;91951.28;5109639;27;20054;-77
2023/04/12 04:49:13;;;;;;;14.73;10.48;;;;;;;7.48;100.00;91942.56;5108403;27;20050;-77
2023/04/12 04:51:38;;;;;;;15.18;10.63;;;;;;;7.35;100.00;91948.44;5108073;27;20473;-76
2023/04/12 04:54:04;;;;;;;17.95;10.90;;;;;;;7.38;100.00;91947.88;5106143;27;20039;-77
2023/04/12 04:56:31;;;;;;;10.65;6.60;;;;;;;7.42;100.00;91940.28;5108556;27;20031;-77
2023/04/12 04:58:57;;;;;;;14.80;9.35;;;;;;;7.46;100.00;91933.47;5070396;27;20044;-77
2023/04/12 05:01:27;;;;;;;15.90;10.13;;;;;;;7.47;100.00;91935.78;5104538;28;20362;-76
2023/04/12 05:03:54;;;;;;;20.70;11.48;;;;;;;7.46;100.00;91938.69;5103921;27;20493;-76
2023/04/12 05:06:21;;;;;;;16.65;11.25;;;;;;;7.40;100.00;91940.56;5104643;28;20120;-78
2023/04/12 05:08:47;;;;;;;18.90;12.25;;;;;;;7.44;100.00;91946.00;5104393;27;20119;-77
2023/04/12 05:11:15;;;;;;;16.60;12.10;;;;;;;7.42;100.00;91940.28;5108398;27;20402;-77
2023/04/12 05:13:41;;;;;;;19.27;12.30;;;;;;;7.43;100.00;91941.81;5107040;27;20362;-77
2023/04/12 05:16:10;;;;;;;15.68;11.80;;;;;;;7.45;100.00;91940.50;5110050;27;20031;-77
2023/04/12 05:18:35;;;;;;;15.20;11.30;;;;;;;7.48;100.00;91942.56;5109016;27;20130;-78
2023/04/12 05:21:05;;;;;;;16.13;11.73;;;;;;;7.53;100.00;91943.53;5108182;27;20525;-77
2023/04/12 05:23:41;;;;;;;14.07;11.27;;;;;;;7.57;100.00;91947.91;5090501;28;20028;-78
2023/04/12 05:26:09;;;;;;;15.70;11.23;;;;;;;7.60;100.00;91943.97;5107469;27;20031;-77
2023/04/12 05:28:35;;;;;;;19.17;11.35;;;;;;;7.65;100.00;91931.63;5107396;27;20043;-78
2023/04/12 05:31:01;;;;;;;19.65;12.27;;;;;;;7.67;100.00;91929.53;5106723;27;20027;-77
2023/04/12 05:33:35;;;;;;;17.02;12.35;;;;;;;7.75;100.00;91930.75;5097022;27;20470;-78
2023/04/12 05:36:02;;;;;;;16.23;11.65;;;;;;;7.81;100.00;91932.19;5107032;27;20042;-78
2023/04/12 05:38:29;;;;;;;17.20;11.05;;;;;;;7.78;100.00;91926.78;5092447;28;20042;-77
2023/04/12 05:40:57;;;;;;;18.50;10.95;;;;;;;7.85;100.00;91935.81;5091216;27;20088;-76
2023/04/12 05:43:23;;;;;;;14.70;11.25;;;;;;;7.87;100.00;91944.13;5101090;27;20443;-77
2023/04/12 05:45:51;;;;;;;16.25;10.80;;;;;;;7.90;100.00;91933.16;5086484;28;20071;-76
2023/04/12 05:48:20;;;;;;;18.05;11.27;;;;;;;7.98;100.00;91936.16;5105529;27;20038;-77
2023/04/12 05:50:53;;;;;;;18.67;11.95;;;;;;;7.92;100.00;91946.66;5106921;27;20438;-77
2023/04/12 05:53:21;;;;;;;18.38;12.18;;;;;;;7.88;100.00;91940.47;5105617;27;20068;-77
2023/04/12 05:55:46;;;;;;;15.60;11.43;;;;;;;7.88;100.00;91944.88;5107213;27;20297;-77
2023/04/12 05:58:13;;;;;;;15.75;11.38;;;;;;;7.84;100.00;91943.91;5103422;27;20048;-77
2023/04/12 06:00:44;;;;;;;17.33;12.40;;;;;;;7.78;100.00;91945.03;5103765;27;20047;-77
2023/04/12 06:03:10;;;;;;;17.13;12.23;;;;;;;7.84;100.00;91938.72;5088488;27;20091;-77
2023/04/12 06:05:36;;;;;;;18.58;13.38;;;;;;;7.93;100.00;91939.63;5106139;27;20488;-77
2023/04/12 06:08:04;;;;;;;17.67;12.73;;;;;;;7.91;100.00;91939.13;5105392;27;20073;-77
2023/04/12 06:10:30;;;;;;;18.05;13.13;;;;;;;7.84;100.00;91938.72;5102515;27;20091;-77
2023/04/12 06:12:55;;;;;;;17.17;13.90;;;;;;;7.81;100.00;91939.25;5111754;27;20031;-79
2023/04/12 06:15:21;;;;;;;19.55;12.30;;;;;;;8.02;100.00;91935.31;5131901;27;20529;-79
2023/04/12 06:17:52;;;;;;;17.70;12.95;;;;;;;8.00;100.00;91937.44;5125707;27;20070;-80
2023/04/12 06:20:18;;;;;;;15.70;12.02;;;;;;;8.14;100.00;91938.25;5091442;27;20073;-79
2023/04/12 06:22:44;;;;;;;18.73;12.73;;;;;;;8.28;100.00;91942.75;5112496;27;20122;-78
2023/04/12 06:25:13;;;;;;;18.27;13.25;;;;;;;8.13;100.00;91939.31;5114232;27;20035;-80
2023/04/12 06:27:39;;;;;;;21.50;13.45;;;;;;;8.12;100.00;91942.97;5107858;28;20031;-80
2023/04/12 06:30:06;;;;;;;18.92;13.10;;;;;;;8.13;100.00;91941.94;5095814;27;20140;-80
2023/04/12 06:32:34;;;;;;;19.13;12.55;;;;;;;8.12;100.00;91937.75;5108895;27;20404;-80
2023/04/12 06:34:59;;;;;;;19.98;13.20;;;;;;;8.18;100.00;91953.34;5114128;27;20039;-79
2023/04/12 06:37:25;;;;;;;19.02;12.65;;;;;;;8.19;100.00;91953.03;5116340;27;20038;-79
2023/04/12 06:39:51;;;;;;;18.17;12.93;;;;;;;8.21;100.00;91956.13;5110971;27;20034;-79
2023/04/12 06:42:17;;;;;;;18.73;13.77;;;;;;;8.24;100.00;91947.75;5134060;27;20504;-80
2023/04/12 06:44:42;;;;;;;17.40;12.18;;;;;;;8.28;100.00;91942.75;5116449;27;20031;-80
2023/04/12 06:47:08;;;;;;;18.20;12.20;;;;;;;8.33;100.00;91951.28;5109261;27;20046;-79
2023/04/12 06:49:34;;;;;;;19.70;11.98;;;;;;;8.28;100.00;91953.19;5127289;27;20492;-78
2023/04/12 06:51:59;;;;;;;14.27;10.88;;;;;;;8.43;100.00;91947.75;5128860;27;20052;-78
2023/04/12 06:54:25;;;;;;;17.33;13.13;;;;;;;8.62;100.00;91945.09;5128919;27;20084;-79
2023/04/12 06:56:51;;;;;;;20.83;14.18;;;;;;;8.49;100.00;91941.41;5106998;27;20357;-79
2023/04/12 06:59:16;;;;;;;22.05;14.48;;;;;;;8.35;100.00;91930.09;5097420;27;20042;-78
2023/04/12 07:01:42;;;;;;;19.85;12.90;;;;;;;8.36;100.00;91934.28;5128686;27;20024;-80
2023/04/12 07:04:08;;;;;;;20.23;13.82;;;;;;;8.23;100.00;91925.34;5106912;28;20138;-78
2023/04/12 07:06:33;;;;;;;19.42;13.77;;;;;;;8.14;100.00;91929.66;5113536;27;20486;-80
2023/04/12 07:08:59;;;;;;;21.70;13.85;;;;;;;8.01;100.00;91923.31;5134106;27;20042;-80
2023/04/12 07:11:24;;;;;;;22.25;14.82;;;;;;;7.99;100.00;91925.44;5110070;27;20023;-79
2023/04/12 07:13:50;;;;;;;22.23;13.10;;;;;;;7.91;100.00;91933.91;5092159;27;20121;-79
2023/04/12 07:16:16;;;;;;;22.13;13.95;;;;;;;7.81;100.00;91932.19;5133621;27;20027;-80
2023/04/12 07:18:42;;;;;;;20.88;13.70;;;;;;;7.73;100.00;91925.03;5113040;27;20046;-79
2023/04/12 07:21:07;;;;;;;19.50;12.82;;;;;;;7.71;100.00;91914.13;5128403;27;20046;-78
2023/04/12 07:23:33;;;;;;;22.17;14.05;;;;;;;7.68;100.00;91925.88;5131627;27;20569;-80
2023/04/12 07:26:00;;;;;;;21.40;13.27;;;;;;;7.69;100.00;91916.22;5129971;27;20080;-81
2023/04/12 07:28:26;;;;;;;18.13;11.65;;;;;;;7.65;100.00;91921.22;5129071;27;20035;-78
2023/04/12 07:30:52;;;;;;;18.40;11.45;;;;;;;7.59;100.00;91911.94;5127472;27;20031;-80
2023/04/12 07:33:17;;;;;;;15.80;11.07;;;;;;;7.60;100.00;91918.69;5111242;27;20041;-78
2023/04/12 07:35:43;;;;;;;17.67;11.15;;;;;;;7.56;100.00;91920.31;5113184;27;20097;-79
2023/04/12 07:38:09;;;;;;;18.38;11.55;;;;;;;7.55;100.00;91918.75;5096251;27;20065;-79
2023/04/12 07:40:35;;;;;;;15.02;9.82;;;;;;;7.49;100.00;91906.84;5131090;27;20039;-80
2023/04/12 07:43:00;;;;;;;16.02;9.20;;;;;;;7.51;100.00;91915.94;5092472;28;20055;-81
2023/04/12 07:45:26;;;;;;;15.30;9.30;;;;;;;7.53;100.00;91923.47;5124534;27;20042;-80
2023/04/12 07:47:52;;;;;;;16.38;10.10;;;;;;;7.59;100.00;91917.16;5115174;28;20486;-78
2023/04/12 07:50:18;;;;;;;18.73;10.80;;;;;;;7.64;100.00;91914.47;5136505;28;20043;-80
2023/04/12 07:52:44;;;;;;;15.32;10.55;;;;;;;7.74;100.00;91918.00;5110467;28;20031;-81
2023/04/12 07:55:09;;;;;;;17.88;10.50;;;;;;;7.83;100.00;91922.28;5112125;28;20043;-81
2023/04/12 07:57:35;;;;;;;18.10;12.95;;;;;;;7.85;100.00;91938.41;5110773;28;20035;-81
2023/04/12 08:00:01;;;;;;;18.48;12.68;;;;;;;7.82;100.00;91933.00;5131132;28;20043;-81
2023/04/12 08:02:27;;;;;;;22.58;13.15;;;;;;;7.88;100.00;91940.47;5133412;28;20407;-81
2023/04/12 08:04:53;;;;;;;19.48;13.02;;;;;;;7.86;100.00;91937.38;5133754;28;20385;-81
2023/04/12 08:07:21;;;;;;;17.83;12.18;;;;;;;7.95;100.00;91934.09;5096761;28;20031;-81
2023/04/12 08:09:47;;;;;;;17.73;12.40;;;;;;;8.13;100.00;91934.09;5131420;28;20482;-81
2023/04/12 08:12:14;;;;;;;18.00;11.50;;;;;;;8.08;100.00;91934.19;5115341;28;20497;-80
2023/04/12 08:14:39;;;;;;;20.25;11.65;;;;;;;8.06;100.00;91931.09;5109694;28;20118;-81
2023/04/12 08:17:05;;;;;;;20.55;11.45;;;;;;;8.09;100.00;91927.91;5108735;28;20074;-78
2023/04/12 08:19:32;;;;;;;15.57;11.10;;;;;;;8.11;100.00;91932.84;5109108;28;20406;-78
2023/04/12 08:21:57;;;;;;;17.92;11.55;;;;;;;8.11;100.00;91928.41;5132007;27;20038;-78
2023/04/12 08:24:23;;;;;;;15.90;10.80;;;;;;;8.06;100.00;91933.69;5134734;27;20497;-78
2023/04/12 08:26:52;;;;;;;16.23;10.70;;;;;;;8.04;100.00;91937.66;5131593;27;20054;-79
2023/04/12 08:29:18;;;;;;;22.10;12.27;;;;;;;8.04;100.00;91933.19;5131746;27;20032;-78
2023/04/12 08:31:44;;;;;;;17.67;10.65;;;;;;;8.05;100.00;91929.53;5127175;27;20115;-78
2023/04/12 08:34:10;;;;;;;17.63;10.77;;;;;;;8.13;100.00;91931.50;5113851;27;20035;-78
2023/04/12 08:36:35;;;;;;;14.63;10.52;;;;;;;8.12;100.00;91935.16;5131854;27;20473;-78
2023/04/12 08:39:01;;;;;;;18.45;10.23;;;;;;;8.02;100.00;91919.69;5119601;27;20094;-78
2023/04/12 08:41:27;;;;;;;16.73;10.32;;;;;;;8.07;100.00;91927.41;5132502;27;20382;-79
2023/04/12 08:43:56;;;;;;;14.82;9.60;;;;;;;8.04;100.00;91928.00;5108984;27;20043;-77
2023/04/12 08:46:21;;;;;;;18.70;10.25;;;;;;;7.93;100.00;91926.59;5127988;27;20047;-76
2023/04/12 08:48:49;;;;;;;14.25;9.65;;;;;;;7.86;100.00;91926.16;5126792;27;20461;-77
2023/04/12 08:51:17;;;;;;;18.08;11.65;;;;;;;7.82;100.00;91914.75;5127276;27;20455;-77
2023/04/12 08:53:43;;;;;;;19.48;10.15;;;;;;;7.83;100.00;91924.13;5108801;27;20739;-77
2023/04/12 08:56:10;;;;;;;23.73;11.50;;;;;;;7.83;100.00;91926.72;5128451;27;20038;-76
2023/04/12 08:58:44;;;;;;;21.13;11.75;;;;;;;7.91;100.00;91937.28;5127313;27;20046;-76
2023/04/12 09:01:14;;;;;;;15.88;10.85;;;;;;;7.88;100.00;91929.25;5126161;27;20055;-78
2023/04/12 09:03:43;;;;;;;20.42;11.68;;;;;;;7.84;100.00;91936.88;5127185;27;20039;-77
2023/04/12 09:06:10;;;;;;;16.58;10.07;;;;;;;7.80;100.00;91932.50;5126723;27;20046;-78
2023/04/12 09:08:36;;;;;;;19.75;10.88;;;;;;;7.90;100.00;91921.91;5134194;27;20131;-78
2023/04/12 09:11:19;;;;;;;14.55;9.40;;;;;;;7.97;100.00;91930.19;5114294;27;20173;-78
2023/04/12 09:13:45;;;;;;;15.75;10.50;;;;;;;7.99;100.00;91935.09;5133991;27;20035;-77
2023/04/12 09:16:11;;;;;;;16.60;10.23;;;;;;;7.88;100.00;91924.03;5135736;27;20035;-78
2023/04/12 09:18:50;;;;;;;14.57;8.75;;;;;;;7.90;100.00;91932.34;5109787;27;20035;-78
2023/04/12 09:21:15;;;;;;;16.77;10.30;;;;;;;7.70;100.00;91925.59;5112375;27;20370;-76
2023/04/12 09:23:41;;;;;;;17.67;10.98;;;;;;;7.65;100.00;91915.25;5107879;27;20038;-78
2023/04/12 09:26:07;;;;;;;18.33;10.27;;;;;;;7.69;100.00;91918.84;5127868;27;20032;-77
2023/04/12 09:28:32;;;;;;;16.08;9.05;;;;;;;7.74;100.00;91920.59;5107852;27;20043;-77
2023/04/12 09:30:59;;;;;;;17.65;10.68;;;;;;;7.78;100.00;91930.16;5108155;28;20085;-77
2023/04/12 09:33:36;;;;;;;18.50;11.00;;;;;;;7.45;100.00;91919.69;5089570;27;20027;-79
2023/04/12 09:36:03;;;;;;;20.40;11.57;;;;;;;7.33;100.00;91918.53;5129745;27;20039;-78
2023/04/12 09:38:30;;;;;;;17.63;11.73;;;;;;;7.22;100.00;91917.88;5109563;27;20164;-78
2023/04/12 09:40:56;;;;;;;23.83;11.57;;;;;;;7.08;100.00;91915.16;5129595;27;20027;-76
2023/04/12 09:43:38;;;;;;;20.33;12.13;;;;;;;7.07;100.00;91927.41;5128002;27;20412;-77
2023/04/12 09:46:12;;;;;;;20.20;11.85;;;;;;;7.05;100.00;91921.72;5109465;28;20153;-78
2023/04/12 09:48:48;;;;;;;22.60;11.35;;;;;;;7.13;100.00;91922.16;5091409;27;20274;-79
2023/04/12 09:51:27;;;;;;;17.95;11.40;;;;;;;7.20;100.00;91914.75;5129482;27;20023;-79
2023/04/12 09:53:58;;;;;;;18.42;11.95;;;;;;;7.29;100.00;91918.31;5131925;27;20058;-79
2023/04/12 09:56:27;;;;;;;17.55;11.25;;;;;;;7.27;100.00;91915.19;5109914;28;20046;-79
2023/04/12 09:58:56;;;;;;;18.65;11.38;;;;;;;7.17;100.00;91917.94;5129563;27;20031;-79
2023/04/12 10:01:22;;;;;;;18.98;11.73;;;;;;;7.11;100.00;91917.22;5136942;27;20031;-79
2023/04/12 10:03:48;;;;;;;19.77;12.07;;;;;;;7.07;100.00;91901.38;5113496;27;20118;-78
2023/04/12 10:06:14;;;;;;;21.25;12.45;;;;;;;7.08;100.00;91908.13;5115082;27;20093;-78
2023/04/12 10:08:41;;;;;;;20.35;12.18;;;;;;;7.09;100.00;91908.91;5128516;27;20099;-78
2023/04/12 10:11:08;;;;;;;17.83;12.00;;;;;;;7.11;100.00;91906.03;5112285;27;20031;-79
2023/04/12 10:13:35;;;;;;;20.80;11.98;;;;;;;7.24;100.00;91907.97;5098714;27;20039;-78
2023/04/12 10:16:04;;;;;;;19.55;11.68;;;;;;;7.18;100.00;91903.84;5114634;27;20053;-78
2023/04/12 10:18:30;;;;;;;20.25;11.13;;;;;;;7.12;100.00;91897.19;5133912;27;20095;-79
2023/04/12 10:20:57;;;;;;;21.90;12.00;;;;;;;7.07;100.00;91898.03;5114112;27;20034;-79
2023/04/12 10:23:22;;;;;;;18.70;12.45;;;;;;;7.03;100.00;91897.03;5114753;27;20488;-79
2023/04/12 10:25:49;;;;;;;23.58;12.90;;;;;;;7.04;100.00;91893.34;5111274;27;20092;-79
2023/04/12 10:28:20;;;;;;;18.77;11.38;;;;;;;7.06;100.00;91893.84;5131810;27;20035;-79
2023/04/12 10:30:50;;;;;;;21.33;13.10;;;;;;;7.10;100.00;91884.44;5125557;27;20035;-79
2023/04/12 10:33:19;;;;;;;20.25;12.43;;;;;;;7.19;100.00;91885.38;5111211;27;20074;-79
2023/04/12 10:35:53;;;;;;;17.45;10.43;;;;;;;7.17;100.00;91884.88;5128452;27;20035;-79
2023/04/12 10:38:20;;;;;;;21.60;11.55;;;;;;;7.19;100.00;91874.19;5127855;27;20038;-80
2023/04/12 10:41:22;;;;;;;19.02;12.32;;;;;;;7.24;100.00;91889.72;5108808;27;20032;-78
2023/04/12 10:43:50;;;;;;;23.23;12.38;;;;;;;7.28;100.00;91877.72;5063561;28;20056;-78
2023/04/12 10:46:37;;;;;;;21.25;12.60;;;;;;;7.36;100.00;91874.47;5095901;28;20084;-79
2023/04/12 10:49:14;;;;;;;22.67;13.60;;;;;;;7.44;100.00;91867.88;5119715;27;20048;-78
2023/04/12 10:52:02;;;;;;;20.02;12.75;;;;;;;7.55;100.00;91869.28;5103179;28;20039;-78
2023/04/12 10:54:28;;;;;;;21.48;12.80;;;;;;;7.60;100.00;91866.59;5109196;28;20040;-80
2023/04/12 10:56:56;;;;;;;21.45;12.50;;;;;;;7.63;100.00;91868.66;5101258;28;20019;-79
2023/04/12 10:59:49;;;;;;;21.52;12.68;;;;;;;7.65;100.00;91863.91;5106957;28;20057;-78
2023/04/12 11:02:15;;;;;;;20.38;12.32;;;;;;;7.66;100.00;91875.13;5104890;28;20040;-78
2023/04/12 11:05:08;;;;;;;18.88;11.93;;;;;;;7.63;100.00;91871.25;5105255;28;20031;-78
2023/04/12 11:07:53;;;;;;;18.75;11.73;;;;;;;7.61;100.00;91860.34;5107355;28;20507;-77
2023/04/12 11:10:38;;;;;;;21.42;12.50;;;;;;;7.59;100.00;91857.25;5105498;28;20050;-79
2023/04/12 11:13:08;;;;;;;19.73;11.65;;;;;;;7.58;100.00;91852.31;5104408;28;20041;-77
2023/04/12 11:15:33;;;;;;;22.30;12.90;;;;;;;7.59;100.00;91859.06;5111945;28;20038;-77
2023/04/12 11:17:59;;;;;;;21.08;12.50;;;;;;;7.62;100.00;91858.50;5102814;28;20028;-80
2023/04/12 11:20:26;;;;;;;19.40;12.88;;;;;;;7.55;100.00;91852.88;5107875;27;20039;-76
2023/04/12 11:22:53;;;;;;;24.08;12.77;;;;;;;7.50;100.00;91853.72;5106475;28;20035;-78
2023/04/12 11:25:20;;;;;;;20.70;12.98;;;;;;;7.51;100.00;91863.06;5082559;28;20054;-78
2023/04/12 11:27:50;;;;;;;20.48;12.43;;;;;;;7.47;100.00;91849.06;5106151;28;20505;-78
2023/04/12 11:30:16;;;;;;;22.55;12.65;;;;;;;7.46;100.00;91844.94;5110377;28;20033;-78
2023/04/12 11:32:44;;;;;;;18.60;12.48;;;;;;;7.47;100.00;91841.25;5110834;28;20035;-79